createdAt,value
2023-03-17T00:01:54.230Z,95056.34
2023-03-17T00:04:24.657Z,95053.06
2023-03-17T00:06:52.676Z,95056.34
2023-03-17T00:09:20.263Z,95064.16
2023-03-17T00:11:47.683Z,95064.50
2023-03-17T00:14:14.553Z,95059.50
2023-03-17T00:16:43.674Z,95052.28
2023-03-17T00:19:18.258Z,95052.13
2023-03-17T00:21:47.001Z,95061.25
2023-03-17T00:24:15.166Z,95050.53
2023-03-17T00:26:42.900Z,95055.84
2023-03-17T00:29:09.846Z,95046.50
2023-03-17T00:31:38.007Z,95042.06
2023-03-17T00:34:06.088Z,95041.41
2023-03-17T00:36:33.680Z,95038.28
2023-03-17T00:39:00.609Z,95041.38
2023-03-17T00:41:27.711Z,95037.25
2023-03-17T00:43:54.315Z,95046.25
2023-03-17T00:46:36.155Z,95039.09
2023-03-17T00:49:21.084Z,95039.09
2023-03-17T00:51:49.952Z,95029.31
2023-03-17T00:54:18.044Z,95027.09
2023-03-17T00:56:45.621Z,95025.00
2023-03-17T00:59:21.161Z,95017.69
2023-03-17T01:01:48.168Z,95019.63
2023-03-17T01:04:15.634Z,95010.06
2023-03-17T01:06:43.798Z,95005.53
2023-03-17T01:09:14.774Z,95005.28
2023-03-17T01:11:42.694Z,95006.88
2023-03-17T01:14:11.332Z,94991.09
2023-03-17T01:16:38.787Z,94985.22
2023-03-17T01:19:05.860Z,94975.41
2023-03-17T01:21:33.104Z,94979.56
2023-03-17T01:24:00.339Z,94980.06
2023-03-17T01:26:26.880Z,94987.41
2023-03-17T01:28:54.483Z,94982.66
2023-03-17T01:31:20.942Z,94976.03
2023-03-17T01:33:47.442Z,94976.31
2023-03-17T01:36:14.401Z,94975.16
2023-03-17T01:38:41.808Z,94968.84
2023-03-17T01:41:08.212Z,94965.59
2023-03-17T01:43:34.776Z,94961.09
2023-03-17T01:46:21.815Z,94958.19
2023-03-17T01:49:15.672Z,94955.69
2023-03-17T01:51:54.861Z,94955.06
2023-03-17T01:54:27.021Z,94945.97
2023-03-17T01:56:57.764Z,94939.72
2023-03-17T01:59:31.542Z,94931.00
2023-03-17T02:02:04.141Z,94930.56
2023-03-17T02:04:31.636Z,94940.13
2023-03-17T02:06:58.996Z,94928.91
2023-03-17T02:09:27.884Z,94923.13
2023-03-17T02:11:56.161Z,94920.00
2023-03-17T02:14:23.650Z,94909.13
2023-03-17T02:16:50.569Z,94905.94
2023-03-17T02:19:17.641Z,94903.16
2023-03-17T02:21:47.616Z,94892.06
2023-03-17T02:24:32.498Z,94891.50
2023-03-17T02:27:14.590Z,94886.13
2023-03-17T02:29:42.449Z,94896.66
2023-03-17T02:32:09.969Z,94903.78
2023-03-17T02:34:37.264Z,94897.94
2023-03-17T02:37:04.923Z,94903.09
2023-03-17T02:39:32.059Z,94904.44
2023-03-17T02:41:58.930Z,94903.09
2023-03-17T02:44:26.497Z,94904.31
2023-03-17T02:46:53.559Z,94908.31
2023-03-17T02:49:20.639Z,94900.09
2023-03-17T02:51:48.717Z,94890.34
2023-03-17T02:54:15.335Z,94894.69
2023-03-17T02:56:41.920Z,94891.00
2023-03-17T02:59:09.073Z,94889.59
2023-03-17T03:01:35.969Z,94887.94
2023-03-17T03:04:03.944Z,94874.16
2023-03-17T03:06:32.030Z,94872.19
2023-03-17T03:08:58.926Z,94875.06
2023-03-17T03:11:25.564Z,94875.00
2023-03-17T03:13:52.532Z,94881.22
2023-03-17T03:16:18.987Z,94878.31
2023-03-17T03:18:45.681Z,94881.03
2023-03-17T03:21:12.654Z,94879.59
2023-03-17T03:23:39.138Z,94881.84
2023-03-17T03:26:05.743Z,94890.56
2023-03-17T03:28:32.562Z,94895.97
2023-03-17T03:30:59.000Z,94894.53
2023-03-17T03:33:25.554Z,94900.66
2023-03-17T03:35:52.334Z,94897.41
2023-03-17T03:38:19.168Z,94901.78
2023-03-17T03:40:45.789Z,94909.03
2023-03-17T03:43:22.749Z,94902.06
2023-03-17T03:45:50.717Z,94907.56
2023-03-17T03:48:17.708Z,94900.44
2023-03-17T03:50:44.404Z,94909.78
2023-03-17T03:53:10.814Z,94898.41
2023-03-17T03:55:37.842Z,94896.28
2023-03-17T03:58:04.349Z,94892.88
2023-03-17T04:00:30.935Z,94899.34
2023-03-17T04:02:59.497Z,94902.50
2023-03-17T04:05:26.080Z,94896.50
2023-03-17T04:07:52.897Z,94895.78
2023-03-17T04:10:19.660Z,94900.66
2023-03-17T04:12:46.713Z,94888.59
2023-03-17T04:15:17.864Z,94900.47
2023-03-17T04:17:44.824Z,94895.44
2023-03-17T04:20:13.216Z,94896.94
2023-03-17T04:22:41.684Z,94892.44
2023-03-17T04:25:10.900Z,94891.91
2023-03-17T04:27:37.927Z,94889.59
2023-03-17T04:30:05.385Z,94892.81
2023-03-17T04:32:32.422Z,94888.59
2023-03-17T04:34:58.994Z,94876.25
2023-03-17T04:37:25.703Z,94884.91
2023-03-17T04:39:52.800Z,94888.06
2023-03-17T04:42:19.252Z,94898.94
2023-03-17T04:44:46.073Z,94899.91
2023-03-17T04:47:12.961Z,94900.44
2023-03-17T04:49:39.514Z,94905.47
2023-03-17T04:52:06.748Z,94906.09
2023-03-17T04:54:33.665Z,94909.66
2023-03-17T04:57:00.697Z,94901.56
2023-03-17T04:59:27.311Z,94895.44
2023-03-17T05:01:54.163Z,94901.47
2023-03-17T05:04:31.076Z,94900.47
2023-03-17T05:06:58.268Z,94910.97
2023-03-17T05:09:27.020Z,94909.34
2023-03-17T05:11:53.464Z,94912.50
2023-03-17T05:14:20.437Z,94926.97
2023-03-17T05:16:48.687Z,94925.53
2023-03-17T05:19:16.335Z,94926.31
2023-03-17T05:21:42.828Z,94928.03
2023-03-17T05:24:10.169Z,94933.56
2023-03-17T05:26:36.604Z,94930.34
2023-03-17T05:29:03.352Z,94931.94
2023-03-17T05:31:31.470Z,94935.44
2023-03-17T05:33:58.053Z,94940.41
2023-03-17T05:36:24.963Z,94934.56
2023-03-17T05:38:52.671Z,94926.28
2023-03-17T05:41:19.427Z,94923.84
2023-03-17T05:43:46.095Z,94927.09
2023-03-17T05:46:13.025Z,94924.75
2023-03-17T05:48:39.509Z,94925.22
2023-03-17T05:51:06.588Z,94923.66
2023-03-17T05:53:33.372Z,94911.53
2023-03-17T05:55:59.775Z,94913.16
2023-03-17T05:58:26.769Z,94909.56
2023-03-17T06:00:53.593Z,94907.59
2023-03-17T06:03:21.323Z,94910.31
2023-03-17T06:05:48.316Z,94912.28
2023-03-17T06:08:15.360Z,94906.44
2023-03-17T06:10:43.004Z,94913.09
2023-03-17T06:13:10.071Z,94916.69
2023-03-17T06:15:36.957Z,94916.09
2023-03-17T06:18:05.172Z,94907.78
2023-03-17T06:20:33.599Z,94918.22
2023-03-17T06:23:04.962Z,94916.41
2023-03-17T06:25:32.629Z,94910.84
2023-03-17T06:28:02.910Z,94905.63
2023-03-17T06:30:31.180Z,94914.06
2023-03-17T06:32:57.697Z,94923.44
2023-03-17T06:35:25.155Z,94934.53
2023-03-17T06:37:52.410Z,94922.88
2023-03-17T06:40:18.978Z,94917.56
2023-03-17T06:42:45.998Z,94910.38
2023-03-17T06:45:12.933Z,94903.56
2023-03-17T06:47:39.822Z,94867.41
2023-03-17T06:50:10.014Z,94828.53
2023-03-17T06:52:38.204Z,94774.81
2023-03-17T06:55:06.222Z,94727.72
2023-03-17T06:57:33.191Z,94673.34
2023-03-17T06:59:59.727Z,94611.19
2023-03-17T07:02:27.118Z,94580.78
2023-03-17T07:04:53.733Z,94570.19
2023-03-17T07:07:21.018Z,94611.50
2023-03-17T07:09:48.298Z,94668.88
2023-03-17T07:12:14.764Z,94716.31
2023-03-17T07:14:41.636Z,94775.41
2023-03-17T07:17:12.776Z,94791.63
2023-03-17T07:19:39.828Z,94818.31
2023-03-17T07:22:07.061Z,94831.00
2023-03-17T07:24:34.454Z,94871.47
2023-03-17T07:27:00.915Z,94922.44
2023-03-17T07:29:29.115Z,94960.84
2023-03-17T07:31:56.043Z,94969.72
2023-03-17T07:34:23.678Z,94997.75
2023-03-17T07:36:50.554Z,95012.25
2023-03-17T07:39:17.312Z,95045.00
2023-03-17T07:41:44.231Z,95089.13
2023-03-17T07:44:11.708Z,95153.09
2023-03-17T07:46:39.160Z,95195.03
2023-03-17T07:49:06.224Z,95215.28
2023-03-17T07:51:32.954Z,95264.34
2023-03-17T07:54:04.220Z,95315.84
2023-03-17T07:56:32.104Z,95369.84
2023-03-17T07:58:59.214Z,95404.66
2023-03-17T08:01:27.119Z,95408.63
2023-03-17T08:03:54.379Z,95398.09
2023-03-17T08:06:21.618Z,95424.50
2023-03-17T08:08:48.774Z,95442.88
2023-03-17T08:11:16.779Z,95713.56
2023-03-17T08:13:43.328Z,95703.44
2023-03-17T08:16:11.334Z,95707.38
2023-03-17T08:18:38.065Z,95689.63
2023-03-17T08:21:05.181Z,95688.06
2023-03-17T08:23:32.761Z,95703.75
2023-03-17T08:26:02.181Z,95693.28
2023-03-17T08:28:29.591Z,95665.72
2023-03-17T08:31:17.470Z,95688.81
2023-03-17T08:33:48.429Z,95689.16
2023-03-17T08:36:16.632Z,95662.66
2023-03-17T08:38:45.206Z,95696.59
2023-03-17T08:41:15.573Z,95713.25
2023-03-17T08:43:44.012Z,95719.16
2023-03-17T08:46:18.035Z,95702.25
2023-03-17T08:48:46.714Z,95673.81
2023-03-17T08:51:13.653Z,95671.59
2023-03-17T08:53:40.925Z,95649.22
2023-03-17T08:56:08.389Z,95275.56
2023-03-17T08:58:37.591Z,95159.97
2023-03-17T09:01:05.251Z,95091.22
2023-03-17T09:03:33.648Z,95062.19
2023-03-17T09:06:00.368Z,95013.25
2023-03-17T09:08:28.289Z,95023.44
2023-03-17T09:10:54.703Z,95079.44
2023-03-17T09:13:21.948Z,95011.97
2023-03-17T09:15:51.745Z,95006.41
2023-03-17T09:18:21.949Z,95035.88
2023-03-17T09:20:48.707Z,95070.19
2023-03-17T09:23:15.894Z,95150.56
2023-03-17T09:25:43.256Z,95225.56
2023-03-17T09:28:12.525Z,95234.09
2023-03-17T09:30:42.864Z,95209.16
2023-03-17T09:33:10.763Z,95145.41
2023-03-17T09:35:38.372Z,95088.34
2023-03-17T09:38:05.405Z,95099.81
2023-03-17T09:41:00.366Z,95103.84
2023-03-17T09:43:43.369Z,95069.13
2023-03-17T09:46:37.840Z,95067.59
2023-03-17T09:49:14.172Z,95065.00
2023-03-17T09:51:43.247Z,95069.63
2023-03-17T09:54:27.964Z,95110.84
2023-03-17T09:57:12.316Z,95155.75
2023-03-17T09:59:42.169Z,95137.75
2023-03-17T10:02:28.570Z,95243.44
2023-03-17T10:04:56.380Z,95284.75
2023-03-17T10:07:36.640Z,95309.53
2023-03-17T10:10:09.241Z,95245.59
2023-03-17T10:12:52.154Z,95283.75
2023-03-17T10:15:28.163Z,95339.38
2023-03-17T10:17:55.032Z,95373.13
2023-03-17T10:20:27.344Z,95454.81
2023-03-17T10:23:02.277Z,95480.44
2023-03-17T10:25:33.005Z,95574.72
2023-03-17T10:28:02.638Z,95534.16
2023-03-17T10:30:33.563Z,95502.19
2023-03-17T10:33:03.732Z,95493.53
2023-03-17T10:35:35.942Z,95487.53
2023-03-17T10:38:23.846Z,95478.78
2023-03-17T10:40:59.524Z,95483.09
2023-03-17T10:43:36.907Z,95500.34
2023-03-17T10:46:05.907Z,95542.22
2023-03-17T10:48:37.701Z,95498.75
2023-03-17T10:51:11.606Z,95478.25
2023-03-17T10:53:43.619Z,95474.94
2023-03-17T10:56:25.000Z,95498.47
2023-03-17T10:58:53.879Z,95483.91
2023-03-17T11:01:38.514Z,95477.22
2023-03-17T11:04:29.915Z,95480.44
2023-03-17T11:06:58.601Z,95475.25
2023-03-17T11:09:29.170Z,95477.44
2023-03-17T11:12:09.074Z,95453.53
2023-03-17T11:14:35.722Z,95448.75
2023-03-17T11:17:16.342Z,95479.72
2023-03-17T11:19:56.132Z,95472.16
2023-03-17T11:22:40.177Z,95476.84
2023-03-17T11:25:19.720Z,95459.13
2023-03-17T11:28:16.155Z,95464.91
2023-03-17T11:30:59.223Z,95465.63
2023-03-17T11:33:47.069Z,95446.66
2023-03-17T11:36:43.559Z,95447.63
2023-03-17T11:39:22.860Z,95448.84
2023-03-17T11:42:06.304Z,95442.53
2023-03-17T11:44:51.694Z,95424.16
2023-03-17T11:47:32.209Z,95450.41
2023-03-17T11:50:23.685Z,95431.56
2023-03-17T11:52:56.716Z,95592.13
2023-03-17T11:55:28.847Z,95580.69
2023-03-17T11:58:05.223Z,95611.88
2023-03-17T12:00:35.104Z,95615.72
2023-03-17T12:03:04.717Z,95624.31
2023-03-17T12:05:32.551Z,95601.97
2023-03-17T12:08:13.289Z,95613.47
2023-03-17T12:10:45.295Z,95613.94
2023-03-17T12:13:43.933Z,95596.34
2023-03-17T12:16:21.276Z,95586.13
2023-03-17T12:19:09.999Z,95586.72
2023-03-17T12:21:47.518Z,95596.25
2023-03-17T12:25:11.229Z,95591.19
2023-03-17T12:27:54.256Z,95593.31
2023-03-17T12:30:28.451Z,95583.66
2023-03-17T12:33:14.890Z,95590.47
2023-03-17T12:35:47.580Z,95577.25
2023-03-17T12:38:30.599Z,95577.00
2023-03-17T12:41:15.741Z,95568.19
2023-03-17T12:43:57.958Z,95563.63
2023-03-17T12:46:34.344Z,95562.66
2023-03-17T12:49:38.545Z,95564.72
2023-03-17T12:52:30.200Z,95560.94
2023-03-17T12:55:01.294Z,95577.84
2023-03-17T12:57:32.326Z,95580.16
2023-03-17T13:00:05.617Z,95576.25
2023-03-17T13:02:38.752Z,95562.34
2023-03-17T13:05:09.064Z,95558.53
2023-03-17T13:07:56.861Z,95559.97
2023-03-17T13:10:39.879Z,95558.88
2023-03-17T13:13:49.516Z,95550.56
2023-03-17T13:16:33.868Z,95541.41
2023-03-17T13:19:31.404Z,95539.53
2023-03-17T13:22:04.322Z,95542.84
2023-03-17T13:24:52.216Z,95541.22
2023-03-17T13:27:31.069Z,95537.94
2023-03-17T13:29:58.384Z,95529.94
2023-03-17T13:32:24.777Z,95533.47
2023-03-17T13:34:53.867Z,95531.97
2023-03-17T13:37:42.500Z,95533.09
2023-03-17T13:40:21.402Z,95521.38
2023-03-17T13:43:00.383Z,95525.81
2023-03-17T13:45:39.356Z,95526.72
2023-03-17T13:48:24.844Z,95533.47
2023-03-17T13:51:08.795Z,95531.84
2023-03-17T13:53:40.537Z,95538.03
2023-03-17T13:56:36.099Z,95532.69
2023-03-17T13:59:02.891Z,95538.06
2023-03-17T14:01:43.876Z,95547.72
2023-03-17T14:04:27.260Z,95528.44
2023-03-17T14:06:58.248Z,95526.19
2023-03-17T14:09:34.446Z,95507.72
2023-03-17T14:12:15.930Z,95513.34
2023-03-17T14:14:51.381Z,95514.47
2023-03-17T14:17:28.817Z,95513.41
2023-03-17T14:20:08.655Z,95506.41
2023-03-17T14:22:45.601Z,95506.69
2023-03-17T14:25:25.108Z,95495.94
2023-03-17T14:27:54.115Z,95499.75
2023-03-17T14:30:27.328Z,95498.34
2023-03-17T14:33:15.139Z,95487.09
2023-03-17T14:35:43.434Z,95489.78
2023-03-17T14:38:31.171Z,95482.81
2023-03-17T14:41:03.225Z,95494.06
2023-03-17T14:43:30.333Z,95484.94
2023-03-17T14:46:12.862Z,95486.56
2023-03-17T14:48:42.808Z,95476.88
2023-03-17T14:51:33.855Z,95470.47
2023-03-17T14:54:01.844Z,95477.59
2023-03-17T14:56:36.944Z,95463.34
2023-03-17T14:59:29.750Z,95470.47
2023-03-17T15:02:02.166Z,95477.72
2023-03-17T15:04:31.511Z,95473.16
2023-03-17T15:07:04.083Z,95471.00
2023-03-17T15:09:33.472Z,95475.84
2023-03-17T15:12:06.985Z,95465.59
2023-03-17T15:14:40.105Z,95458.88
2023-03-17T15:17:16.994Z,95446.53
2023-03-17T15:19:46.479Z,95451.34
2023-03-17T15:22:43.868Z,95442.78
2023-03-17T15:25:34.484Z,95449.69
2023-03-17T15:28:01.170Z,95444.63
2023-03-17T15:30:37.446Z,95449.31
2023-03-17T15:33:23.713Z,95442.13
2023-03-17T15:35:50.529Z,95442.88
2023-03-17T15:38:17.300Z,95445.53
2023-03-17T15:40:44.140Z,95440.13
2023-03-17T15:43:15.352Z,95436.19
2023-03-17T15:45:43.811Z,95434.38
2023-03-17T15:48:27.128Z,95429.28
2023-03-17T15:50:55.429Z,95428.41
2023-03-17T15:53:22.229Z,95432.75
2023-03-17T15:55:48.980Z,95425.78
2023-03-17T15:58:15.602Z,95420.97
2023-03-17T16:00:42.709Z,95420.63
2023-03-17T16:03:21.234Z,95398.16
2023-03-17T16:05:47.864Z,95418.97
2023-03-17T16:08:15.950Z,95416.75
2023-03-17T16:10:43.059Z,95416.59
2023-03-17T16:13:09.603Z,95419.47
2023-03-17T16:15:42.018Z,95416.59
2023-03-17T16:18:19.869Z,95405.19
2023-03-17T16:20:49.254Z,95392.47
2023-03-17T16:23:23.088Z,95377.41
2023-03-17T16:25:50.176Z,95369.66
2023-03-17T16:28:23.435Z,95090.50
2023-03-17T16:30:51.449Z,95078.19
2023-03-17T16:33:31.515Z,95056.50
2023-03-17T16:36:00.074Z,95042.44
2023-03-17T16:38:29.091Z,95024.16
2023-03-17T16:40:59.923Z,95021.03
2023-03-17T16:43:32.091Z,94966.44
2023-03-17T16:46:01.537Z,94942.78
2023-03-17T16:48:28.374Z,94697.09
2023-03-17T16:50:55.698Z,94674.22
2023-03-17T16:53:23.481Z,94649.59
2023-03-17T16:55:52.022Z,94655.16
2023-03-17T16:58:33.199Z,94633.41
2023-03-17T17:01:02.668Z,94622.09
2023-03-17T17:03:31.055Z,94604.13
2023-03-17T17:05:57.811Z,94441.13
2023-03-17T17:08:24.382Z,94433.13
2023-03-17T17:10:51.661Z,94423.97
2023-03-17T17:13:18.627Z,94377.88
2023-03-17T17:15:45.432Z,94357.97
2023-03-17T17:18:16.310Z,94351.47
2023-03-17T17:20:43.768Z,94346.41
2023-03-17T17:23:13.157Z,94325.94
2023-03-17T17:25:39.871Z,94306.78
2023-03-17T17:28:06.790Z,94277.59
2023-03-17T17:30:34.005Z,94244.63
2023-03-17T17:33:02.008Z,94233.47
2023-03-17T17:35:32.808Z,94230.19
2023-03-17T17:38:00.570Z,94225.84
2023-03-17T17:40:27.385Z,94229.97
2023-03-17T17:42:55.540Z,94236.69
2023-03-17T17:45:22.034Z,94248.00
2023-03-17T17:47:48.865Z,94250.28
2023-03-17T17:50:28.208Z,94242.00
2023-03-17T17:52:55.062Z,94239.00
2023-03-17T17:55:21.526Z,94257.41
2023-03-17T17:57:49.895Z,94272.56
2023-03-17T18:00:17.901Z,94279.81
2023-03-17T18:02:44.743Z,94302.44
2023-03-17T18:05:15.747Z,94330.50
2023-03-17T18:07:42.193Z,94404.13
2023-03-17T18:10:16.912Z,94428.31
2023-03-17T18:12:43.394Z,94432.13
2023-03-17T18:15:10.187Z,94444.22
2023-03-17T18:17:37.216Z,94442.44
2023-03-17T18:20:03.843Z,94457.44
2023-03-17T18:22:30.252Z,94440.66
2023-03-17T18:24:57.137Z,94425.19
2023-03-17T18:27:23.581Z,94420.19
2023-03-17T18:29:50.296Z,94419.97
2023-03-17T18:32:16.811Z,94416.69
2023-03-17T18:34:46.204Z,94422.44
2023-03-17T18:37:15.259Z,94412.47
2023-03-17T18:39:42.975Z,94421.91
2023-03-17T18:42:09.744Z,94430.38
2023-03-17T18:44:37.053Z,94428.22
2023-03-17T18:47:05.471Z,94430.97
2023-03-17T18:49:31.946Z,94429.94
2023-03-17T18:51:59.531Z,94429.03
2023-03-17T18:54:28.185Z,94433.63
2023-03-17T18:56:55.279Z,94430.88
2023-03-17T18:59:21.807Z,94434.56
2023-03-17T19:01:48.666Z,94440.53
2023-03-17T19:04:15.584Z,94435.34
2023-03-17T19:06:42.712Z,94438.94
2023-03-17T19:09:10.933Z,94442.50
2023-03-17T19:11:39.207Z,94438.13
2023-03-17T19:14:07.172Z,94437.78
2023-03-17T19:16:35.120Z,94441.38
2023-03-17T19:19:02.629Z,94453.75
2023-03-17T19:21:29.067Z,94463.94
2023-03-17T19:24:00.119Z,94446.84
2023-03-17T19:26:27.679Z,94445.59
2023-03-17T19:28:56.249Z,94451.22
2023-03-17T19:31:25.178Z,94453.25
2023-03-17T19:33:51.946Z,94456.91
2023-03-17T19:36:19.224Z,94461.34
2023-03-17T19:38:46.127Z,94461.25
2023-03-17T19:41:13.476Z,94463.63
2023-03-17T19:43:41.606Z,94465.22
2023-03-17T19:46:09.673Z,94476.28
2023-03-17T19:48:37.300Z,94479.94
2023-03-17T19:51:04.519Z,94481.44
2023-03-17T19:53:31.637Z,94484.72
2023-03-17T19:55:58.025Z,94488.19
2023-03-17T19:58:24.538Z,94491.72
2023-03-17T20:00:51.792Z,94488.19
2023-03-17T20:03:18.396Z,94479.56
2023-03-17T20:05:46.402Z,94489.13
2023-03-17T20:08:14.210Z,94480.00
2023-03-17T20:10:40.585Z,94479.41
2023-03-17T20:13:07.083Z,94502.97
2023-03-17T20:18:19.174Z,94501.38
2023-03-17T20:20:50.954Z,94482.81
2023-03-17T20:23:18.031Z,94480.75
2023-03-17T20:25:44.818Z,94488.38
2023-03-17T20:28:12.901Z,94481.13
2023-03-17T20:30:39.834Z,94482.41
2023-03-17T20:33:08.172Z,94493.94
2023-03-17T20:35:35.180Z,94509.22
2023-03-17T20:38:02.017Z,94503.88
2023-03-17T20:40:28.667Z,94501.81
2023-03-17T20:42:55.664Z,94499.03
2023-03-17T20:45:22.093Z,94500.47
2023-03-17T20:47:49.156Z,94501.34
2023-03-17T20:50:16.762Z,94497.75
2023-03-17T20:52:43.244Z,94495.22
2023-03-17T20:55:13.892Z,94494.72
2023-03-17T20:57:42.478Z,94491.56
2023-03-17T21:00:17.958Z,94492.34
2023-03-17T21:02:48.368Z,94487.09
2023-03-17T21:05:17.936Z,94487.97
2023-03-17T21:07:44.684Z,94487.59
2023-03-17T21:10:12.139Z,94504.84
2023-03-17T21:12:38.863Z,94504.50
2023-03-17T21:15:06.376Z,94509.44
2023-03-17T21:17:33.247Z,94499.94
2023-03-17T21:19:59.919Z,94507.69
2023-03-17T21:22:26.782Z,94511.03
2023-03-17T21:24:53.648Z,94514.06
2023-03-17T21:27:20.070Z,94511.28
2023-03-17T21:29:48.005Z,94515.06
2023-03-17T21:32:14.707Z,94532.75
2023-03-17T21:34:41.513Z,94537.25
2023-03-17T21:37:07.982Z,94538.38
2023-03-17T21:39:36.520Z,94544.13
2023-03-17T21:42:03.755Z,94550.41
2023-03-17T21:44:32.284Z,94561.34
2023-03-17T21:47:02.886Z,94553.88
2023-03-17T21:49:29.421Z,94554.28
2023-03-17T21:51:55.922Z,94560.38
2023-03-17T21:54:22.915Z,94544.88
2023-03-17T21:56:49.829Z,94545.06
2023-03-17T21:59:18.432Z,94564.06
2023-03-17T22:01:45.192Z,94560.41
2023-03-17T22:04:12.559Z,94565.47
2023-03-17T22:06:40.101Z,94567.31
2023-03-17T22:09:07.050Z,94571.63
2023-03-17T22:11:33.439Z,94573.44
2023-03-17T22:13:59.874Z,94572.25
2023-03-17T22:16:26.833Z,94566.81
2023-03-17T22:18:53.338Z,94563.00
2023-03-17T22:21:21.400Z,94564.41
2023-03-17T22:23:48.532Z,94564.22
2023-03-17T22:26:20.525Z,94563.00
2023-03-17T22:28:49.730Z,94557.16
2023-03-17T22:31:22.158Z,94570.75
2023-03-17T22:33:50.933Z,94574.78
2023-03-17T22:36:17.860Z,94577.41
2023-03-17T22:38:45.905Z,94588.50
2023-03-17T22:41:16.924Z,94585.28
2023-03-17T22:43:43.565Z,94579.63
2023-03-17T22:46:11.011Z,94582.66
2023-03-17T22:48:38.174Z,94599.22
2023-03-17T22:51:08.807Z,94598.22
2023-03-17T22:53:36.534Z,94595.59
2023-03-17T22:56:04.358Z,94610.97
2023-03-17T22:58:31.319Z,94609.34
2023-03-17T23:00:57.820Z,94610.75
2023-03-17T23:03:26.589Z,94607.94
2023-03-17T23:05:57.151Z,94608.78
2023-03-17T23:08:25.075Z,94620.25
2023-03-17T23:10:52.274Z,94615.03
2023-03-17T23:13:19.964Z,94616.88
2023-03-17T23:15:47.432Z,94624.53
2023-03-17T23:18:14.028Z,94626.13
2023-03-17T23:20:40.757Z,94638.63
2023-03-17T23:23:08.365Z,94645.91
2023-03-17T23:25:36.655Z,94644.69
2023-03-17T23:28:03.852Z,94647.91
2023-03-17T23:30:31.582Z,94645.91
2023-03-17T23:32:58.857Z,94660.44
2023-03-17T23:35:25.478Z,94666.06
2023-03-17T23:37:51.966Z,94668.28
2023-03-17T23:40:18.931Z,94663.66
2023-03-17T23:42:48.755Z,94667.06
2023-03-17T23:45:18.971Z,94667.66
2023-03-17T23:47:47.095Z,94667.28
2023-03-17T23:50:14.736Z,94670.88
2023-03-17T23:52:42.871Z,94681.19
2023-03-17T23:55:11.760Z,94678.97
2023-03-17T23:57:39.131Z,94678.97
